createdAt,value
2022-10-06T00:00:11.546Z,26.35
2022-10-06T00:02:39.311Z,26.08
2022-10-06T00:05:07.132Z,27.38
2022-10-06T00:07:36.228Z,25.85
2022-10-06T00:10:04.626Z,26.70
2022-10-06T00:12:39.357Z,26.40
2022-10-06T00:15:07.194Z,25.65
2022-10-06T00:17:35.032Z,27.15
2022-10-06T00:20:02.741Z,26.55
2022-10-06T00:22:41.258Z,27.48
2022-10-06T00:25:10.217Z,25.95
2022-10-06T00:27:39.745Z,26.08
2022-10-06T00:30:09.471Z,26.65
2022-10-06T00:32:37.271Z,26.55
2022-10-06T00:35:05.464Z,26.17
2022-10-06T00:37:36.238Z,26.27
2022-10-06T00:40:09.231Z,26.23
2022-10-06T00:42:50.080Z,25.90
2022-10-06T00:45:19.047Z,26.17
2022-10-06T00:47:46.711Z,25.58
2022-10-06T00:50:15.196Z,25.90
2022-10-06T00:52:43.415Z,25.75
2022-10-06T00:55:11.829Z,24.88
2022-10-06T00:57:40.288Z,25.27
2022-10-06T01:00:08.520Z,25.30
2022-10-06T01:02:45.520Z,26.33
2022-10-06T01:05:17.338Z,25.35
2022-10-06T01:07:45.210Z,27.17
2022-10-06T01:10:12.865Z,26.38
2022-10-06T01:12:40.631Z,22.63
2022-10-06T01:15:08.661Z,25.15
2022-10-06T01:17:44.908Z,24.55
2022-10-06T01:20:14.478Z,24.70
2022-10-06T01:22:44.089Z,24.33
2022-10-06T01:25:13.368Z,24.25
2022-10-06T01:27:42.670Z,25.75
2022-10-06T01:30:14.606Z,24.48
2022-10-06T01:32:42.592Z,24.63
2022-10-06T01:35:10.703Z,24.67
2022-10-06T01:37:39.801Z,24.80
2022-10-06T01:40:07.613Z,25.00
2022-10-06T01:42:36.776Z,25.63
2022-10-06T01:45:05.204Z,24.73
2022-10-06T01:47:33.934Z,24.90
2022-10-06T01:50:01.821Z,25.45
2022-10-06T01:52:30.970Z,24.58
2022-10-06T01:54:58.621Z,24.73
2022-10-06T01:57:26.578Z,24.75
2022-10-06T01:59:55.077Z,25.42
2022-10-06T02:02:24.181Z,24.55
2022-10-06T02:04:51.834Z,25.42
2022-10-06T02:07:19.929Z,24.15
2022-10-06T02:09:48.054Z,24.75
2022-10-06T02:12:17.676Z,24.55
2022-10-06T02:14:45.414Z,24.23
2022-10-06T02:17:13.067Z,24.48
2022-10-06T02:19:40.788Z,23.13
2022-10-06T02:22:08.449Z,25.73
2022-10-06T02:24:36.495Z,25.48
2022-10-06T02:27:05.288Z,24.38
2022-10-06T02:29:33.107Z,25.77
2022-10-06T02:32:01.357Z,24.73
2022-10-06T02:34:29.714Z,25.45
2022-10-06T02:36:57.759Z,25.23
2022-10-06T02:39:25.742Z,27.15
2022-10-06T02:41:53.384Z,26.88
2022-10-06T02:44:21.504Z,24.48
2022-10-06T02:46:49.593Z,28.75
2022-10-06T02:49:18.465Z,26.05
2022-10-06T02:51:46.099Z,25.85
2022-10-06T02:54:13.717Z,26.15
2022-10-06T02:56:41.411Z,26.67
2022-10-06T02:59:09.190Z,26.98
2022-10-06T03:01:38.033Z,25.98
2022-10-06T03:04:12.998Z,28.20
2022-10-06T03:06:42.281Z,27.08
2022-10-06T03:09:28.371Z,28.42
2022-10-06T03:11:57.000Z,27.10
2022-10-06T03:14:34.071Z,28.00
2022-10-06T03:17:01.988Z,26.95
2022-10-06T03:19:30.782Z,27.73
2022-10-06T03:21:59.222Z,27.08
2022-10-06T03:24:35.618Z,28.38
2022-10-06T03:27:03.454Z,26.23
2022-10-06T03:29:31.289Z,27.75
2022-10-06T03:31:59.384Z,24.88
2022-10-06T03:34:27.284Z,26.65
2022-10-06T03:36:56.910Z,25.83
2022-10-06T03:39:26.986Z,26.85
2022-10-06T03:41:54.819Z,26.63
2022-10-06T03:44:22.832Z,25.70
2022-10-06T03:46:51.355Z,26.80
2022-10-06T03:49:19.580Z,24.63
2022-10-06T03:51:47.620Z,25.45
2022-10-06T03:54:23.164Z,25.52
2022-10-06T03:56:54.485Z,26.55
2022-10-06T03:59:22.333Z,26.65
2022-10-06T04:01:53.011Z,25.38
2022-10-06T04:04:26.183Z,26.65
2022-10-06T04:06:59.180Z,24.45
2022-10-06T04:09:27.524Z,25.88
2022-10-06T04:11:55.216Z,23.65
2022-10-06T04:14:22.855Z,25.70
2022-10-06T04:16:51.949Z,26.48
2022-10-06T04:19:27.386Z,26.45
2022-10-06T04:21:56.559Z,26.23
2022-10-06T04:24:26.054Z,25.13
2022-10-06T04:27:14.014Z,27.63
2022-10-06T04:29:42.595Z,25.70
2022-10-06T04:32:10.913Z,25.45
2022-10-06T04:34:38.697Z,27.33
2022-10-06T04:37:06.710Z,26.70
2022-10-06T04:39:35.168Z,26.95
2022-10-06T04:42:03.324Z,25.92
2022-10-06T04:44:32.114Z,26.45
2022-10-06T04:47:02.266Z,26.30
2022-10-06T04:49:29.924Z,27.80
2022-10-06T04:51:58.038Z,27.10
2022-10-06T04:54:31.351Z,26.45
2022-10-06T04:57:01.636Z,26.73
2022-10-06T04:59:49.814Z,27.48
2022-10-06T05:02:19.824Z,28.80
2022-10-06T05:04:51.318Z,27.80
2022-10-06T05:07:20.408Z,27.88
2022-10-06T05:09:48.106Z,28.23
2022-10-06T05:12:15.736Z,28.70
2022-10-06T05:14:46.818Z,28.25
2022-10-06T05:17:15.126Z,27.67
2022-10-06T05:19:43.269Z,28.15
2022-10-06T05:22:10.906Z,27.90
2022-10-06T05:24:38.524Z,26.45
2022-10-06T05:27:06.599Z,27.10
2022-10-06T05:29:35.529Z,27.13
2022-10-06T05:32:05.672Z,27.33
2022-10-06T05:34:34.746Z,26.65
2022-10-06T05:37:02.461Z,25.20
2022-10-06T05:39:30.266Z,26.67
2022-10-06T05:41:59.185Z,25.88
2022-10-06T05:44:27.744Z,27.25
2022-10-06T05:46:58.242Z,25.90
2022-10-06T05:49:26.063Z,26.38
2022-10-06T05:51:57.958Z,26.60
2022-10-06T05:54:28.909Z,25.15
2022-10-06T05:56:56.624Z,25.80
2022-10-06T05:59:24.334Z,25.95
2022-10-06T06:01:54.492Z,25.17
2022-10-06T06:04:34.128Z,23.25
2022-10-06T06:07:02.215Z,25.10
2022-10-06T06:09:29.918Z,28.25
2022-10-06T06:12:02.107Z,24.63
2022-10-06T06:14:58.816Z,22.42
2022-10-06T06:17:33.965Z,25.00
2022-10-06T06:20:04.414Z,26.33
2022-10-06T06:22:32.077Z,24.92
2022-10-06T06:24:59.733Z,24.67
2022-10-06T06:27:27.400Z,25.20
2022-10-06T06:29:58.262Z,24.05
2022-10-06T06:32:27.896Z,23.70
2022-10-06T06:34:55.859Z,24.80
2022-10-06T06:37:23.592Z,24.40
2022-10-06T06:39:51.353Z,23.75
2022-10-06T06:42:19.066Z,25.73
2022-10-06T06:44:49.535Z,24.13
2022-10-06T06:47:26.765Z,23.88
2022-10-06T06:49:55.093Z,26.00
2022-10-06T06:52:26.044Z,23.95
2022-10-06T06:54:54.042Z,22.80
2022-10-06T06:57:22.303Z,24.48
2022-10-06T06:59:52.612Z,25.10
2022-10-06T07:02:21.707Z,24.48
2022-10-06T07:04:49.469Z,24.27
2022-10-06T07:07:21.099Z,24.95
2022-10-06T07:09:48.946Z,23.65
2022-10-06T07:12:18.626Z,23.42
2022-10-06T07:15:10.634Z,22.25
2022-10-06T07:18:03.307Z,22.20
2022-10-06T07:20:50.528Z,22.92
2022-10-06T07:23:38.387Z,24.05
2022-10-06T07:26:10.225Z,22.08
2022-10-06T07:28:37.963Z,22.35
2022-10-06T07:31:06.451Z,22.60
2022-10-06T07:33:34.248Z,25.50
2022-10-06T07:36:05.118Z,23.70
2022-10-06T07:38:34.298Z,24.92
2022-10-06T07:46:22.859Z,24.65
2022-10-06T07:49:10.935Z,23.65
2022-10-06T07:51:38.634Z,24.80
2022-10-06T07:54:08.917Z,23.52
2022-10-06T07:56:59.549Z,24.00
2022-10-06T07:59:27.298Z,23.80
2022-10-06T08:01:55.006Z,21.25
2022-10-06T08:04:22.714Z,23.55
2022-10-06T08:06:50.382Z,22.45
2022-10-06T08:09:18.039Z,23.85
2022-10-06T08:11:47.349Z,23.83
2022-10-06T08:14:15.178Z,24.85
2022-10-06T08:16:42.841Z,23.50
2022-10-06T08:19:11.644Z,24.80
2022-10-06T08:21:39.786Z,22.90
2022-10-06T08:24:07.463Z,25.48
2022-10-06T08:26:35.976Z,25.08
2022-10-06T08:29:03.774Z,25.05
2022-10-06T08:31:32.214Z,25.60
2022-10-06T08:34:00.069Z,25.50
2022-10-06T08:36:32.113Z,24.40
2022-10-06T08:39:00.937Z,25.92
2022-10-06T08:41:44.626Z,25.15
2022-10-06T08:44:16.648Z,24.10
2022-10-06T08:47:00.512Z,22.63
2022-10-06T08:49:33.948Z,25.05
2022-10-06T08:52:07.796Z,24.70
2022-10-06T08:54:58.943Z,24.60
2022-10-06T08:57:47.200Z,24.20
2022-10-06T09:00:21.131Z,23.73
2022-10-06T09:02:50.662Z,22.67
2022-10-06T09:05:25.262Z,25.48
2022-10-06T09:08:10.934Z,23.38
2022-10-06T09:10:58.852Z,23.48
2022-10-06T09:13:30.154Z,23.50
2022-10-06T09:16:00.238Z,23.15
2022-10-06T09:18:49.868Z,24.27
2022-10-06T09:21:40.493Z,25.58
2022-10-06T09:24:11.997Z,22.33
2022-10-06T09:26:43.303Z,23.98
2022-10-06T09:29:10.981Z,23.80
2022-10-06T09:31:39.840Z,24.80
2022-10-06T09:34:20.851Z,25.13
2022-10-06T09:37:03.137Z,23.77
2022-10-06T09:39:33.556Z,26.50
2022-10-06T09:42:03.134Z,25.10
2022-10-06T09:44:57.323Z,25.17
2022-10-06T09:47:36.644Z,24.98
2022-10-06T09:50:04.479Z,25.48
2022-10-06T09:52:32.125Z,23.83
2022-10-06T09:55:17.147Z,22.52
2022-10-06T09:57:55.954Z,25.38
2022-10-06T10:00:27.003Z,26.00
2022-10-06T10:03:05.752Z,25.40
2022-10-06T10:05:34.434Z,21.80
2022-10-06T10:08:22.519Z,25.70
2022-10-06T10:10:51.195Z,26.50
2022-10-06T10:13:26.040Z,27.90
2022-10-06T10:16:01.233Z,26.80
2022-10-06T10:18:31.219Z,27.35
2022-10-06T10:21:00.252Z,25.45
2022-10-06T10:23:31.662Z,25.35
2022-10-06T10:26:18.751Z,23.17
2022-10-06T10:28:51.579Z,26.38
2022-10-06T10:31:25.646Z,20.88
2022-10-06T10:34:23.165Z,22.27
2022-10-06T10:36:55.143Z,27.27
2022-10-06T10:39:39.054Z,26.00
2022-10-06T10:42:12.864Z,28.75
2022-10-06T10:44:47.636Z,26.95
2022-10-06T10:47:23.003Z,24.33
2022-10-06T10:49:54.441Z,26.77
2022-10-06T10:52:23.941Z,26.77
2022-10-06T10:54:51.882Z,28.73
2022-10-06T10:57:22.486Z,28.92
2022-10-06T10:59:50.166Z,27.42
2022-10-06T11:02:20.561Z,29.85
2022-10-06T11:04:51.671Z,26.83
2022-10-06T11:07:29.444Z,26.40
2022-10-06T11:10:15.941Z,27.48
2022-10-06T11:12:43.542Z,25.45
2022-10-06T11:15:19.944Z,27.73
2022-10-06T11:17:50.339Z,29.15
2022-10-06T11:20:36.632Z,27.27
2022-10-06T11:23:24.537Z,27.63
2022-10-06T11:26:13.974Z,24.05
2022-10-06T11:28:50.919Z,28.80
2022-10-06T11:31:36.769Z,27.20
2022-10-06T11:34:06.584Z,24.92
2022-10-06T11:36:34.966Z,27.33
2022-10-06T11:39:20.760Z,25.35
2022-10-06T11:41:51.985Z,28.13
2022-10-06T11:44:31.490Z,29.92
2022-10-06T11:47:02.237Z,23.55
2022-10-06T11:49:29.966Z,25.58
2022-10-06T11:52:00.134Z,24.45
2022-10-06T11:54:40.506Z,27.10
2022-10-06T11:57:27.983Z,22.80
2022-10-06T12:00:03.010Z,27.45
2022-10-06T12:02:34.639Z,28.15
2022-10-06T12:05:37.413Z,29.58
2022-10-06T12:07:59.204Z,29.80
2022-10-06T12:10:29.894Z,22.75
2022-10-06T12:13:51.308Z,24.35
2022-10-06T12:19:23.277Z,23.90
2022-10-06T12:21:51.017Z,26.17
2022-10-06T12:24:37.348Z,26.05
2022-10-06T12:27:04.959Z,25.30
2022-10-06T12:29:43.458Z,26.85
2022-10-06T12:32:25.504Z,24.85
2022-10-06T12:35:08.670Z,20.63
2022-10-06T12:37:42.621Z,23.33
2022-10-06T12:40:29.050Z,21.13
2022-10-06T12:43:11.251Z,25.52
2022-10-06T12:45:45.638Z,21.58
2022-10-06T12:48:17.189Z,24.52
2022-10-06T12:50:45.490Z,25.93
2022-10-06T12:53:17.420Z,22.75
2022-10-06T12:56:00.952Z,25.77
2022-10-06T12:58:30.082Z,30.15
2022-10-06T13:01:02.034Z,28.38
2022-10-06T13:03:30.254Z,28.13
2022-10-06T13:06:03.376Z,27.30
2022-10-06T13:08:32.488Z,25.95
2022-10-06T13:11:18.669Z,25.80
2022-10-06T13:13:47.015Z,25.75
2022-10-06T13:16:15.300Z,22.55
2022-10-06T13:18:43.134Z,23.42
2022-10-06T13:21:16.099Z,25.75
2022-10-06T13:23:44.182Z,23.15
2022-10-06T13:26:14.895Z,25.67
2022-10-06T13:28:47.615Z,24.00
2022-10-06T13:31:30.277Z,24.50
2022-10-06T13:34:00.360Z,23.70
2022-10-06T13:36:29.071Z,22.75
2022-10-06T13:38:57.038Z,24.30
2022-10-06T13:41:31.938Z,20.00
2022-10-06T13:44:14.621Z,23.00
2022-10-06T13:46:45.166Z,22.38
2022-10-06T13:49:19.002Z,22.75
2022-10-06T13:51:48.974Z,24.17
2022-10-06T13:54:32.593Z,22.60
2022-10-06T13:57:00.233Z,22.27
2022-10-06T13:59:27.911Z,22.95
2022-10-06T14:01:56.225Z,27.17
2022-10-06T14:04:24.008Z,23.10
2022-10-06T14:06:54.261Z,21.02
2022-10-06T14:09:24.425Z,24.63
2022-10-06T14:12:01.641Z,23.40
2022-10-06T14:14:29.970Z,25.35
2022-10-06T14:16:58.328Z,24.45
2022-10-06T14:19:40.622Z,24.08
2022-10-06T14:22:28.251Z,26.50
2022-10-06T14:24:55.970Z,26.83
2022-10-06T14:27:23.595Z,27.60
2022-10-06T14:29:51.197Z,27.15
2022-10-06T14:32:19.562Z,25.45
2022-10-06T14:34:47.267Z,27.25
2022-10-06T14:37:17.886Z,25.50
2022-10-06T14:39:46.123Z,24.52
2022-10-06T14:42:15.525Z,23.70
2022-10-06T14:44:43.289Z,26.15
2022-10-06T14:47:10.979Z,28.50
2022-10-06T14:49:38.696Z,25.00
2022-10-06T14:52:09.066Z,28.20
2022-10-06T14:54:36.988Z,27.48
2022-10-06T14:57:04.932Z,26.38
2022-10-06T14:59:32.635Z,21.42
2022-10-06T15:02:00.727Z,20.40
2022-10-06T15:04:28.411Z,24.52
2022-10-06T15:07:14.771Z,24.95
2022-10-06T15:09:42.785Z,25.40
2022-10-06T15:12:10.421Z,23.75
2022-10-06T15:14:39.940Z,21.15
2022-10-06T15:17:07.823Z,21.88
2022-10-06T15:19:35.448Z,23.60
2022-10-06T15:22:04.662Z,26.58
2022-10-06T15:24:32.347Z,24.52
2022-10-06T15:27:26.552Z,24.20
2022-10-06T15:29:54.335Z,24.20
2022-10-06T15:32:22.584Z,26.13
2022-10-06T15:34:52.383Z,25.50
2022-10-06T15:37:20.137Z,26.73
2022-10-06T15:39:47.938Z,27.83
2022-10-06T15:42:18.646Z,24.60
2022-10-06T15:44:46.379Z,24.98
2022-10-06T15:47:14.125Z,24.50
2022-10-06T15:49:41.868Z,25.38
2022-10-06T15:52:11.377Z,24.92
2022-10-06T15:54:48.667Z,24.30
2022-10-06T15:57:20.700Z,22.10
2022-10-06T15:59:49.191Z,21.80
2022-10-06T16:02:17.672Z,22.23
2022-10-06T16:05:04.848Z,21.75
2022-10-06T16:07:32.800Z,20.40
2022-10-06T16:10:00.518Z,19.30
2022-10-06T16:12:28.633Z,20.77
2022-10-06T16:14:56.293Z,19.35
2022-10-06T16:17:23.947Z,19.20
2022-10-06T16:19:51.544Z,22.55
2022-10-06T16:22:19.865Z,19.13
2022-10-06T16:24:47.554Z,21.25
2022-10-06T16:27:15.522Z,20.33
2022-10-06T16:29:43.490Z,19.77
2022-10-06T16:32:11.197Z,18.98
2022-10-06T16:34:38.817Z,20.05
2022-10-06T16:37:06.429Z,19.15
2022-10-06T16:39:34.039Z,19.98
2022-10-06T16:42:01.734Z,19.80
2022-10-06T16:44:29.405Z,20.23
2022-10-06T16:46:57.138Z,19.75
2022-10-06T16:49:24.870Z,17.98
2022-10-06T16:51:52.542Z,18.10
2022-10-06T16:54:20.895Z,17.63
2022-10-06T16:56:53.829Z,18.35
2022-10-06T16:59:28.791Z,17.23
2022-10-06T17:01:56.471Z,17.27
2022-10-06T17:04:25.185Z,18.02
2022-10-06T17:06:54.297Z,17.35
2022-10-06T17:09:29.046Z,19.67
2022-10-06T17:11:58.361Z,18.30
2022-10-06T17:14:26.473Z,21.88
2022-10-06T17:16:55.847Z,18.67
2022-10-06T17:19:24.937Z,17.08
2022-10-06T17:21:58.270Z,19.58
2022-10-06T17:24:28.490Z,19.38
2022-10-06T17:26:57.610Z,18.45
2022-10-06T17:29:25.956Z,19.80
2022-10-06T17:31:56.610Z,17.85
2022-10-06T17:34:29.121Z,18.45
2022-10-06T17:36:59.862Z,18.13
2022-10-06T17:39:27.542Z,17.23
2022-10-06T17:41:55.443Z,19.75
2022-10-06T17:44:26.038Z,18.05
2022-10-06T17:46:55.429Z,20.50
2022-10-06T17:49:24.207Z,19.73
2022-10-06T17:51:52.847Z,19.33
2022-10-06T17:54:21.832Z,18.67
2022-10-06T17:56:50.796Z,19.13
2022-10-06T17:59:19.969Z,18.73
2022-10-06T18:01:47.706Z,17.15
2022-10-06T18:04:16.218Z,18.45
2022-10-06T18:06:44.768Z,19.08
2022-10-06T18:09:12.999Z,19.42
2022-10-06T18:12:00.127Z,18.13
2022-10-06T18:14:28.956Z,19.38
2022-10-06T18:16:58.469Z,18.98
2022-10-06T18:19:26.578Z,19.25
2022-10-06T18:21:56.553Z,20.08
2022-10-06T18:24:28.380Z,18.67
2022-10-06T18:26:57.426Z,17.85
2022-10-06T18:29:28.071Z,20.42
2022-10-06T18:32:01.359Z,18.65
2022-10-06T18:37:24.560Z,19.42
2022-10-06T18:39:52.314Z,19.50
2022-10-06T18:42:20.100Z,20.73
2022-10-06T18:45:06.196Z,22.40
2022-10-06T18:47:52.495Z,21.52
2022-10-06T18:50:20.216Z,23.05
2022-10-06T18:52:47.887Z,21.80
2022-10-06T18:55:15.581Z,21.63
2022-10-06T18:57:45.131Z,23.27
2022-10-06T19:00:13.370Z,21.42
2022-10-06T19:02:44.872Z,24.65
2022-10-06T19:05:15.237Z,23.48
2022-10-06T19:07:43.587Z,22.83
2022-10-06T19:10:11.499Z,23.25
2022-10-06T19:12:39.257Z,21.77
2022-10-06T19:15:09.950Z,22.42
2022-10-06T19:17:41.092Z,22.33
2022-10-06T19:20:10.887Z,25.33
2022-10-06T19:22:39.560Z,24.38
2022-10-06T19:25:08.025Z,25.13
2022-10-06T19:27:36.613Z,25.67
2022-10-06T19:30:04.832Z,25.13
2022-10-06T19:32:32.871Z,25.23
2022-10-06T19:35:00.934Z,24.58
2022-10-06T19:37:29.816Z,24.30
2022-10-06T19:39:58.565Z,24.95
2022-10-06T19:42:45.598Z,25.55
2022-10-06T19:45:14.881Z,30.30
2022-10-06T19:47:42.978Z,28.40
2022-10-06T19:50:12.826Z,28.77
2022-10-06T19:52:43.920Z,28.20
2022-10-06T19:55:11.624Z,28.45
2022-10-06T19:57:39.778Z,28.90
2022-10-06T20:00:08.711Z,28.52
2022-10-06T20:02:44.326Z,30.15
2022-10-06T20:05:13.742Z,30.27
2022-10-06T20:07:42.470Z,30.15
2022-10-06T20:10:11.918Z,30.05
2022-10-06T20:12:41.564Z,29.95
2022-10-06T20:15:09.969Z,29.55
2022-10-06T20:17:37.950Z,30.08
2022-10-06T20:20:06.253Z,31.73
2022-10-06T20:22:34.437Z,28.90
2022-10-06T20:25:02.657Z,29.45
2022-10-06T20:27:30.545Z,29.17
2022-10-06T20:29:58.292Z,28.90
2022-10-06T20:32:26.029Z,28.30
2022-10-06T20:34:53.866Z,28.02
2022-10-06T20:37:21.477Z,28.60
2022-10-06T20:40:07.836Z,30.33
2022-10-06T20:42:35.494Z,28.45
2022-10-06T20:45:03.418Z,29.65
2022-10-06T20:47:31.025Z,29.20
2022-10-06T20:49:58.653Z,28.65
2022-10-06T20:52:26.250Z,29.98
2022-10-06T20:54:53.911Z,27.55
2022-10-06T20:57:21.562Z,28.83
2022-10-06T20:59:49.195Z,30.25
2022-10-06T21:02:16.929Z,30.35
2022-10-06T21:04:45.172Z,29.13
2022-10-06T21:07:12.939Z,29.17
2022-10-06T21:09:40.635Z,31.35
2022-10-06T21:12:08.493Z,30.95
2022-10-06T21:14:37.464Z,30.50
2022-10-06T21:17:05.887Z,30.23
2022-10-06T21:19:38.040Z,30.70
2022-10-06T21:22:06.158Z,32.08
2022-10-06T21:24:33.791Z,31.33
2022-10-06T21:27:01.489Z,30.48
2022-10-06T21:29:29.165Z,29.77
2022-10-06T21:31:56.829Z,28.33
2022-10-06T21:34:24.511Z,28.50
2022-10-06T21:36:52.164Z,28.85
2022-10-06T21:39:19.837Z,29.20
2022-10-06T21:41:47.491Z,28.95
2022-10-06T21:44:16.571Z,28.60
2022-10-06T21:46:51.396Z,27.40
2022-10-06T21:49:20.205Z,27.63
2022-10-06T21:51:52.190Z,27.23
2022-10-06T21:54:20.409Z,27.40
2022-10-06T21:56:48.130Z,25.92
2022-10-06T21:59:16.011Z,26.08
2022-10-06T22:01:44.592Z,26.00
2022-10-06T22:04:14.297Z,26.63
2022-10-06T22:06:42.742Z,26.65
2022-10-06T22:09:12.612Z,25.58
2022-10-06T22:11:40.792Z,27.40
2022-10-06T22:14:10.820Z,27.48
2022-10-06T22:16:38.752Z,27.40
2022-10-06T22:19:07.392Z,26.75
2022-10-06T22:21:38.966Z,28.20
2022-10-06T22:24:11.394Z,28.20
2022-10-06T22:26:40.090Z,27.48
2022-10-06T22:29:08.945Z,26.67
2022-10-06T22:31:38.283Z,26.60
2022-10-06T22:34:06.415Z,26.92
2022-10-06T22:36:34.494Z,27.02
2022-10-06T22:39:02.523Z,26.42
2022-10-06T22:41:30.351Z,25.30
2022-10-06T22:43:58.989Z,26.98
2022-10-06T22:46:28.297Z,25.38
2022-10-06T22:48:55.975Z,24.75
2022-10-06T22:51:23.860Z,25.67
2022-10-06T22:53:58.811Z,24.85
2022-10-06T22:56:27.484Z,24.95
2022-10-06T22:58:55.143Z,25.50
2022-10-06T23:01:22.883Z,25.02
2022-10-06T23:03:50.563Z,24.70
2022-10-06T23:06:18.368Z,25.10
2022-10-06T23:08:46.271Z,25.55
2022-10-06T23:11:15.159Z,24.90
2022-10-06T23:13:46.561Z,25.63
2022-10-06T23:16:15.168Z,26.38
2022-10-06T23:18:43.707Z,24.13
2022-10-06T23:21:17.490Z,23.70
2022-10-06T23:23:45.544Z,23.70
2022-10-06T23:26:14.790Z,24.17
2022-10-06T23:28:42.923Z,22.60
2022-10-06T23:31:11.511Z,23.02
2022-10-06T23:33:39.433Z,22.33
2022-10-06T23:36:08.822Z,23.27
2022-10-06T23:38:37.250Z,22.95
2022-10-06T23:41:05.327Z,23.60
2022-10-06T23:43:33.368Z,22.83
2022-10-06T23:46:01.064Z,22.63
2022-10-06T23:48:28.782Z,20.95
2022-10-06T23:51:00.708Z,21.48
2022-10-06T23:53:28.859Z,20.17
2022-10-06T23:55:56.512Z,20.90
2022-10-06T23:58:24.270Z,20.52
